createdAt,value
2023-05-02T11:07:07.256Z,5.43
2023-05-02T11:09:52.574Z,5.75
2023-05-02T11:12:47.580Z,5.97
2023-05-02T11:15:33.305Z,6.57
2023-05-02T11:18:18.706Z,6.53
2023-05-02T11:21:29.983Z,6.50
2023-05-02T11:24:39.500Z,6.82
2023-05-02T11:27:31.152Z,6.13
2023-05-02T11:30:37.170Z,5.72
2023-05-02T11:33:22.493Z,5.50
2023-05-02T11:36:07.945Z,5.40
2023-05-02T11:38:53.036Z,4.85
2023-05-02T11:41:42.563Z,4.47
2023-05-02T11:44:28.463Z,4.80
2023-05-02T11:47:13.840Z,4.45
2023-05-02T11:50:02.264Z,4.25
2023-05-02T11:52:47.924Z,4.03
2023-05-02T11:55:32.894Z,4.45
2023-05-02T11:58:20.856Z,3.70
2023-05-02T12:01:17.202Z,3.63
2023-05-02T12:04:07.826Z,4.10
2023-05-02T12:06:59.487Z,4.05
2023-05-02T12:09:52.948Z,3.67
2023-05-02T12:12:40.781Z,4.25
2023-05-02T12:15:26.299Z,3.92
2023-05-02T12:18:13.526Z,3.90
2023-05-02T12:20:58.992Z,3.75
2023-05-02T12:23:44.613Z,3.65
2023-05-02T12:26:32.545Z,3.55
2023-05-02T12:29:17.951Z,3.60
2023-05-02T12:32:03.570Z,3.50
2023-05-02T12:34:49.158Z,3.88
2023-05-02T12:37:45.654Z,3.80
2023-05-02T12:40:33.294Z,4.45
2023-05-02T12:43:20.064Z,4.53
2023-05-02T12:46:11.877Z,4.45
2023-05-02T12:49:11.925Z,4.03
2023-05-02T12:51:57.771Z,4.22
2023-05-02T12:54:44.497Z,5.05
2023-05-02T12:57:30.318Z,4.53
2023-05-02T13:00:17.423Z,4.55
2023-05-02T13:03:02.713Z,5.25
2023-05-02T13:05:48.192Z,4.63
2023-05-02T13:08:34.533Z,4.70
2023-05-02T13:11:20.538Z,4.18
2023-05-02T13:14:06.149Z,3.17
2023-05-02T13:16:55.279Z,5.05
2023-05-02T13:19:44.607Z,3.30
2023-05-02T13:22:39.468Z,3.90
2023-05-02T13:25:25.760Z,3.78
2023-05-02T13:28:13.528Z,4.82
2023-05-02T13:30:59.087Z,4.55
2023-05-02T13:33:45.449Z,3.25
2023-05-02T13:36:30.827Z,3.35
2023-05-02T13:39:16.219Z,4.32
2023-05-02T13:42:06.132Z,3.90
2023-05-02T13:44:51.738Z,3.92
2023-05-02T13:47:38.340Z,4.00
2023-05-02T13:50:24.558Z,3.75
2023-05-02T13:53:10.197Z,4.18
2023-05-02T13:55:55.498Z,4.70
2023-05-02T13:58:40.702Z,4.50
2023-05-02T14:01:28.738Z,3.78
2023-05-02T14:04:14.339Z,4.20
2023-05-02T14:06:59.738Z,4.47
2023-05-02T14:09:45.043Z,4.25
2023-05-02T14:12:30.971Z,4.70
2023-05-02T14:15:16.700Z,3.88
2023-05-02T14:18:02.025Z,3.35
2023-05-02T14:20:47.143Z,3.85
2023-05-02T14:23:32.637Z,3.78
2023-05-02T14:26:17.835Z,4.07
2023-05-02T14:29:03.233Z,4.68
2023-05-02T14:31:48.854Z,3.33
2023-05-02T14:34:34.420Z,4.00
2023-05-02T14:37:19.721Z,3.75
2023-05-02T14:40:05.905Z,3.90
2023-05-02T14:42:52.345Z,3.70
2023-05-02T14:45:37.586Z,3.88
2023-05-02T14:48:22.954Z,3.58
2023-05-02T14:51:08.333Z,4.32
2023-05-02T14:53:54.302Z,3.55
2023-05-02T14:56:39.745Z,3.05
2023-05-02T14:59:28.441Z,3.22
2023-05-02T15:02:13.876Z,3.15
2023-05-02T15:04:59.660Z,3.85
2023-05-02T15:07:45.252Z,3.47
2023-05-02T15:10:30.502Z,3.75
2023-05-02T15:13:15.717Z,3.28
2023-05-02T15:16:01.431Z,3.45
2023-05-02T15:18:46.940Z,3.28
2023-05-02T15:21:32.778Z,3.75
2023-05-02T15:24:18.282Z,2.78
2023-05-02T15:27:04.133Z,3.17
2023-05-02T15:29:49.153Z,3.67
2023-05-02T15:32:34.754Z,3.40
2023-05-02T15:35:20.050Z,3.70
2023-05-02T15:38:06.532Z,3.60
2023-05-02T15:40:59.572Z,3.30
2023-05-02T15:43:44.972Z,3.55
2023-05-02T15:46:30.485Z,3.30
2023-05-02T15:49:15.803Z,3.20
2023-05-02T15:52:00.891Z,3.90
2023-05-02T15:54:46.578Z,3.35
2023-05-02T15:57:31.888Z,3.30
2023-05-02T16:00:17.929Z,3.50
2023-05-02T16:03:04.018Z,4.10
2023-05-02T16:05:52.776Z,3.13
2023-05-02T16:08:38.410Z,3.40
2023-05-02T16:11:23.659Z,3.50
2023-05-02T16:14:09.260Z,3.75
2023-05-02T16:16:56.043Z,2.92
2023-05-02T16:19:41.449Z,3.63
2023-05-02T16:22:28.275Z,2.97
2023-05-02T16:25:15.185Z,2.58
2023-05-02T16:28:01.150Z,4.43
2023-05-02T16:30:46.512Z,3.22
2023-05-02T16:33:31.754Z,4.15
2023-05-02T16:36:17.306Z,3.10
2023-05-02T16:39:02.703Z,3.22
2023-05-02T16:41:49.269Z,3.97
2023-05-02T16:44:34.677Z,3.33
2023-05-02T16:47:19.819Z,3.15
2023-05-02T16:50:06.220Z,3.60
2023-05-02T16:52:51.904Z,3.63
2023-05-02T16:55:37.128Z,3.83
2023-05-02T16:58:22.774Z,3.05
2023-05-02T17:01:08.533Z,3.33
2023-05-02T17:03:53.689Z,3.72
2023-05-02T17:06:39.079Z,3.55
2023-05-02T17:09:25.137Z,3.28
2023-05-02T17:12:11.630Z,3.33
2023-05-02T17:14:56.770Z,3.35
2023-05-02T17:17:42.658Z,4.38
2023-05-02T17:20:27.853Z,3.58
2023-05-02T17:23:13.123Z,3.47
2023-05-02T17:25:58.286Z,3.17
2023-05-02T17:28:46.586Z,2.88
2023-05-02T17:31:32.208Z,3.22
2023-05-02T17:34:17.388Z,3.50
2023-05-02T17:37:02.772Z,3.72
2023-05-02T17:39:49.213Z,3.83
2023-05-02T17:42:34.409Z,3.30
2023-05-02T17:45:19.982Z,3.03
2023-05-02T17:48:06.334Z,3.30
2023-05-02T17:50:51.490Z,2.70
2023-05-02T17:53:37.237Z,2.72
2023-05-02T17:56:22.578Z,2.92
2023-05-02T17:59:14.047Z,2.80
2023-05-02T18:01:59.308Z,2.58
2023-05-02T18:04:46.002Z,3.25
2023-05-02T18:07:31.570Z,2.70
2023-05-02T18:10:17.123Z,3.00
2023-05-02T18:13:02.273Z,2.60
2023-05-02T18:15:58.226Z,2.97
2023-05-02T18:18:43.756Z,2.78
2023-05-02T18:21:29.024Z,3.40
2023-05-02T18:24:14.203Z,3.10
2023-05-02T18:26:59.608Z,2.58
2023-05-02T18:29:44.975Z,2.60
2023-05-02T18:32:31.588Z,2.85
2023-05-02T18:35:17.320Z,3.15
2023-05-02T18:38:06.120Z,2.63
2023-05-02T18:40:51.598Z,2.72
2023-05-02T18:43:36.757Z,2.90
2023-05-02T18:46:22.086Z,2.75
2023-05-02T18:49:09.186Z,2.42
2023-05-02T18:51:54.457Z,2.25
2023-05-02T18:54:39.689Z,2.25
2023-05-02T18:57:25.389Z,2.97
2023-05-02T19:00:12.073Z,2.35
2023-05-02T19:02:57.639Z,3.72
2023-05-02T19:05:43.256Z,2.85
2023-05-02T19:08:28.646Z,2.83
2023-05-02T19:11:14.834Z,2.80
2023-05-02T19:14:03.270Z,2.42
2023-05-02T19:16:49.677Z,2.78
2023-05-02T19:19:35.246Z,2.35
2023-05-02T19:22:22.211Z,2.72
2023-05-02T19:25:09.471Z,2.50
2023-05-02T19:27:54.735Z,2.17
2023-05-02T19:30:41.633Z,2.92
2023-05-02T19:33:27.199Z,2.95
2023-05-02T19:36:12.642Z,2.25
2023-05-02T19:38:58.262Z,2.60
2023-05-02T19:41:44.131Z,2.80
2023-05-02T19:44:30.019Z,2.65
2023-05-02T19:47:15.663Z,2.42
2023-05-02T19:50:00.677Z,2.40
2023-05-02T19:52:46.271Z,2.67
2023-05-02T19:55:31.685Z,2.17
2023-05-02T19:58:16.808Z,2.45
2023-05-02T20:01:02.094Z,2.50
2023-05-02T20:03:47.435Z,2.10
2023-05-02T20:06:33.293Z,2.47
2023-05-02T20:09:18.715Z,2.75
2023-05-02T20:12:04.214Z,2.33
2023-05-02T20:14:49.493Z,2.55
2023-05-02T20:17:34.696Z,2.10
2023-05-02T20:20:20.227Z,2.75
2023-05-02T20:23:05.648Z,2.95
2023-05-02T20:25:51.483Z,3.10
2023-05-02T20:28:37.822Z,2.97
2023-05-02T20:31:23.201Z,2.92
2023-05-02T20:34:08.969Z,2.80
2023-05-02T20:36:54.222Z,2.40
2023-05-02T20:39:39.404Z,2.40
2023-05-02T20:42:25.742Z,2.20
2023-05-02T20:45:12.580Z,2.83
2023-05-02T20:47:57.876Z,2.65
2023-05-02T20:50:51.663Z,2.53
2023-05-02T20:53:37.915Z,2.65
2023-05-02T20:56:23.323Z,2.80
2023-05-02T20:59:08.946Z,2.30
2023-05-02T21:01:54.395Z,2.50
2023-05-02T21:04:42.102Z,2.80
2023-05-02T21:07:27.854Z,2.58
2023-05-02T21:10:13.499Z,2.20
2023-05-02T21:12:58.754Z,1.98
2023-05-02T21:15:44.262Z,3.10
2023-05-02T21:18:29.382Z,2.33
2023-05-02T21:21:14.954Z,2.30
2023-05-02T21:24:01.488Z,2.28
2023-05-02T21:26:47.017Z,2.70
2023-05-02T21:29:32.173Z,1.92
2023-05-02T21:32:17.697Z,2.90
2023-05-02T21:35:03.323Z,2.70
2023-05-02T21:37:48.759Z,2.03
2023-05-02T21:40:35.312Z,1.98
2023-05-02T21:43:20.775Z,2.13
2023-05-02T21:46:06.454Z,2.10
2023-05-02T21:48:51.772Z,2.40
2023-05-02T21:51:39.800Z,2.65
2023-05-02T21:54:25.505Z,2.33
2023-05-02T21:57:11.101Z,3.10
2023-05-02T21:59:56.457Z,2.42
2023-05-02T22:02:41.668Z,2.45
2023-05-02T22:05:27.365Z,2.00
2023-05-02T22:08:13.357Z,2.17
2023-05-02T22:10:59.065Z,2.55
2023-05-02T22:13:44.152Z,2.70
2023-05-02T22:16:29.720Z,2.10
2023-05-02T22:19:14.861Z,2.92
2023-05-02T22:22:01.549Z,2.50
2023-05-02T22:24:46.714Z,2.90
2023-05-02T22:27:32.034Z,2.00
2023-05-02T22:30:18.141Z,2.20
2023-05-02T22:33:03.789Z,2.47
2023-05-02T22:35:49.061Z,2.60
2023-05-02T22:38:34.900Z,2.70
2023-05-02T22:41:20.075Z,2.25
2023-05-02T22:44:05.623Z,3.10
2023-05-02T22:46:50.964Z,2.75
2023-05-02T22:49:36.268Z,2.92
2023-05-02T22:52:22.441Z,2.67
2023-05-02T22:55:09.240Z,2.75
2023-05-02T22:57:54.961Z,2.85
2023-05-02T23:00:40.277Z,2.67
2023-05-02T23:03:25.939Z,2.78
2023-05-02T23:06:11.656Z,2.78
2023-05-02T23:08:56.709Z,2.85
2023-05-02T23:11:42.189Z,2.75
2023-05-02T23:14:27.556Z,2.50
2023-05-02T23:17:13.015Z,2.33
2023-05-02T23:19:58.804Z,3.03
2023-05-02T23:22:45.336Z,2.25
2023-05-02T23:25:31.001Z,2.75
2023-05-02T23:28:16.066Z,3.75
2023-05-02T23:31:02.748Z,3.05
2023-05-02T23:33:48.161Z,2.72
2023-05-02T23:36:35.030Z,2.22
2023-05-02T23:39:20.336Z,2.30
2023-05-02T23:42:06.134Z,2.60
2023-05-02T23:44:53.627Z,2.80
2023-05-02T23:47:39.082Z,2.70
2023-05-02T23:50:24.445Z,2.40
2023-05-02T23:53:09.522Z,2.80
2023-05-02T23:55:54.981Z,2.53
2023-05-02T23:58:40.500Z,3.45
